Time;durP1;ratioP1;P1;durP2;ratioP2;P2;SDS_P1;SDS_P2;PMS_P1;PMS_P2;Temp;Humidity;BMP_temperature;BMP_pressure;BME280_temperature;BME280_humidity;BME280_pressure;Samples;Min_cycle;Max_cycle;Signal;HPM_P1;HPM_P2
2022/10/01 00:09:48;;;;;;;1.23;0.70;;;;;;;17.13;97.02;99969.38;21224180;27;20073;-75
2022/10/01 00:19:49;;;;;;;0.88;0.63;;;;;;;17.32;96.95;99962.19;21222962;27;20513;-75
2022/10/01 00:29:51;;;;;;;0.60;0.50;;;;;;;17.32;97.05;99935.28;21149975;27;20027;-75
2022/10/01 00:39:53;;;;;;;1.13;0.60;;;;;;;17.22;97.02;99903.06;21228233;27;20096;-75
2022/10/01 00:50:27;;;;;;;1.17;0.60;;;;;;;17.30;96.82;99864.66;21220341;27;20513;-75
2022/10/01 01:00:29;;;;;;;0.90;0.60;;;;;;;17.30;96.88;99851.19;21226027;27;20062;-75
2022/10/01 01:10:42;;;;;;;0.93;0.70;;;;;;;17.05;96.77;99790.03;21217686;27;20403;-75
2022/10/01 01:20:55;;;;;;;0.70;0.50;;;;;;;17.29;96.79;99809.97;21169348;27;20043;-74
2022/10/01 01:31:01;;;;;;;1.20;0.65;;;;;;;17.21;96.62;99767.72;21169127;27;20084;-74
2022/10/01 01:41:04;;;;;;;0.80;0.63;;;;;;;17.28;96.76;99741.06;21200229;27;20471;-74
2022/10/01 01:51:11;;;;;;;1.38;0.63;;;;;;;17.28;96.61;99735.66;21192765;27;20495;-75
2022/10/01 02:01:38;;;;;;;0.60;0.57;;;;;;;17.28;96.60;99706.09;21198496;27;20047;-75
2022/10/01 02:12:09;;;;;;;0.88;0.60;;;;;;;17.28;96.46;99679.19;21209691;27;20043;-75
2022/10/01 02:22:12;;;;;;;0.40;0.40;;;;;;;16.54;96.58;99547.97;21145974;27;20047;-75
2022/10/01 02:32:14;;;;;;;0.47;0.40;;;;;;;17.28;96.49;99616.50;21195390;27;20055;-75
2022/10/01 02:42:17;;;;;;;1.08;0.95;;;;;;;17.28;96.65;99651.47;21217094;27;20088;-75
2022/10/01 02:52:41;;;;;;;0.93;0.52;;;;;;;17.27;96.48;99630.94;21176964;27;20057;-75
2022/10/01 03:02:46;;;;;;;0.63;0.50;;;;;;;17.27;96.39;99612.13;21211283;27;20125;-74
2022/10/01 03:12:49;;;;;;;1.10;0.60;;;;;;;16.88;96.35;99519.34;21212411;27;20161;-75
2022/10/01 03:22:51;;;;;;;0.40;0.40;;;;;;;17.25;96.58;99598.81;21124710;27;20039;-74
2022/10/01 03:32:53;;;;;;;0.40;0.40;;;;;;;16.88;96.45;99522.91;21223855;27;20054;-75
2022/10/01 03:42:55;;;;;;;0.50;0.50;;;;;;;17.24;96.46;99554.97;21225066;27;20043;-75
2022/10/01 03:52:57;;;;;;;0.90;0.60;;;;;;;17.24;96.37;99544.19;21229784;27;20109;-75
2022/10/01 04:02:59;;;;;;;0.68;0.50;;;;;;;17.15;96.34;99515.59;21224315;27;20051;-74
2022/10/01 04:13:00;;;;;;;0.52;0.50;;;;;;;17.24;96.22;99533.44;21225761;27;20070;-74
2022/10/01 04:23:03;;;;;;;0.75;0.43;;;;;;;17.24;96.21;99525.38;21169564;27;20047;-74
2022/10/01 04:33:06;;;;;;;0.40;0.40;;;;;;;17.23;96.54;99518.31;21226428;27;20376;-74
2022/10/01 04:43:08;;;;;;;0.40;0.38;;;;;;;17.14;96.39;99513.91;21220799;27;20406;-74
2022/10/01 04:53:10;;;;;;;0.68;0.40;;;;;;;17.23;96.14;99544.34;21227252;27;20051;-75
2022/10/01 05:03:11;;;;;;;0.75;0.50;;;;;;;17.23;96.20;99539.84;21199602;27;20505;-74
2022/10/01 05:13:13;;;;;;;0.40;0.40;;;;;;;17.23;96.07;99539.84;21218456;27;20055;-75
2022/10/01 05:23:15;;;;;;;1.02;0.50;;;;;;;17.23;96.08;99545.22;20975576;27;20056;-75
2022/10/01 05:33:16;;;;;;;0.95;0.50;;;;;;;17.27;96.51;99551.09;20726130;27;20050;-74
2022/10/01 05:43:18;;;;;;;2.72;0.77;;;;;;;17.36;100.00;99570.78;20721440;27;20054;-75
2022/10/01 05:53:20;;;;;;;1.38;0.65;;;;;;;17.34;100.00;99575.47;20726502;27;20159;-76
2022/10/01 06:03:22;;;;;;;2.03;0.68;;;;;;;17.48;100.00;99582.91;20899290;27;20498;-76
2022/10/01 06:13:25;;;;;;;2.53;0.80;;;;;;;17.52;100.00;99581.56;20844189;27;20050;-75
2022/10/01 06:23:26;;;;;;;1.73;0.68;;;;;;;17.46;99.94;99584.91;20782543;27;20577;-77
2022/10/01 06:33:28;;;;;;;2.10;0.60;;;;;;;17.58;99.40;99614.19;20741418;27;20873;-81
2022/10/01 06:43:30;;;;;;;0.35;0.35;;;;;;;17.34;99.08;99575.47;20776693;27;24337;-76
2022/10/01 06:53:32;;;;;;;1.65;0.60;;;;;;;17.62;98.82;99634.38;20753436;27;20053;-76
2022/10/01 07:03:34;;;;;;;1.02;0.40;;;;;;;17.63;98.53;99646.81;20754115;27;21602;-76
2022/10/01 07:13:36;;;;;;;2.95;1.15;;;;;;;17.30;98.10;99606.41;20816719;27;20043;-76
2022/10/01 07:23:37;;;;;;;1.15;0.55;;;;;;;17.66;98.03;99665.34;20814317;27;20464;-75
2022/10/01 07:33:39;;;;;;;0.55;0.35;;;;;;;17.48;97.64;99669.00;20790195;27;20050;-76
2022/10/01 07:43:42;;;;;;;0.63;0.40;;;;;;;17.69;97.58;99702.72;20822768;27;20041;-76
2022/10/01 07:53:44;;;;;;;1.42;0.40;;;;;;;17.70;97.73;99709.78;20764547;27;20056;-76
2022/10/01 08:03:50;;;;;;;0.70;0.47;;;;;;;17.37;97.58;99661.22;20754838;27;20054;-78
2022/10/01 08:13:54;;;;;;;1.27;0.50;;;;;;;17.75;97.63;99718.19;20750546;27;20054;-76
2022/10/01 08:23:56;;;;;;;0.87;0.33;;;;;;;17.72;97.70;99729.28;20886663;27;20403;-76
2022/10/01 08:33:57;;;;;;;0.75;0.40;;;;;;;17.71;97.42;99738.38;21039207;27;20589;-76
2022/10/01 08:44:01;;;;;;;0.75;0.50;;;;;;;17.46;97.34;99714.06;20870820;27;20077;-76
2022/10/01 08:54:24;;;;;;;0.50;0.35;;;;;;;17.49;97.39;99724.50;20871875;27;20077;-76
2022/10/01 09:04:26;;;;;;;1.20;0.50;;;;;;;17.64;97.53;99769.63;20871925;27;20060;-76
2022/10/01 09:14:45;;;;;;;0.70;0.40;;;;;;;17.61;97.51;99764.56;21041584;27;20427;-76
2022/10/01 09:24:48;;;;;;;0.77;0.43;;;;;;;17.59;97.72;99794.34;21219596;27;20047;-77
2022/10/01 09:34:51;;;;;;;0.55;0.30;;;;;;;17.56;97.81;99810.81;21217952;27;20051;-76
2022/10/01 09:44:53;;;;;;;1.27;0.30;;;;;;;17.34;97.74;99775.38;21217511;27;20039;-76
2022/10/01 09:55:37;;;;;;;1.15;0.40;;;;;;;17.46;97.76;99802.84;21217203;27;20050;-76
2022/10/01 10:05:42;;;;;;;0.30;0.30;;;;;;;17.22;97.73;99795.50;21204163;27;20384;-77
2022/10/01 10:15:57;;;;;;;0.53;0.40;;;;;;;17.53;97.76;99860.41;21138618;27;20094;-77
2022/10/01 10:26:01;;;;;;;0.80;0.40;;;;;;;17.51;97.92;99862.41;21213165;27;20047;-76
2022/10/01 10:36:05;;;;;;;0.63;0.30;;;;;;;17.25;97.92;99828.31;21214364;27;20058;-77
2022/10/01 10:46:08;;;;;;;0.50;0.30;;;;;;;17.51;97.91;99883.13;21211917;27;20043;-76
2022/10/01 10:56:21;;;;;;;1.00;0.30;;;;;;;17.50;97.91;99951.38;21212357;27;20039;-76
2022/10/01 11:06:23;;;;;;;0.30;0.30;;;;;;;17.48;97.91;99951.53;21200306;27;20050;-76
2022/10/01 11:16:34;;;;;;;0.77;0.40;;;;;;;17.24;97.83;99922.59;21174898;27;20127;-76
2022/10/01 11:26:59;;;;;;;0.68;0.35;;;;;;;17.30;97.92;99930.03;21209807;27;20372;-77
2022/10/01 11:37:25;;;;;;;0.73;0.35;;;;;;;17.47;97.69;99974.06;21210893;27;20101;-77
2022/10/01 11:47:42;;;;;;;0.55;0.30;;;;;;;17.40;97.90;99973.00;21210413;27;20281;-77
2022/10/01 12:08:26;;;;;;;0.40;0.40;;;;;;;17.47;97.85;99989.38;21156560;27;20105;-76
2022/10/01 12:18:40;;;;;;;0.63;0.38;;;;;;;17.48;97.72;100007.22;21222804;27;20055;-76
2022/10/01 12:28:45;;;;;;;0.43;0.30;;;;;;;16.78;97.58;99910.06;21206200;27;20035;-76
2022/10/01 12:39:10;;;;;;;0.70;0.30;;;;;;;17.18;97.54;99996.66;21223983;27;20075;-76
2022/10/01 12:49:26;;;;;;;0.38;0.30;;;;;;;17.46;97.55;100063.84;21223176;27;20047;-76
2022/10/01 12:59:39;;;;;;;1.30;0.60;;;;;;;17.16;97.71;100009.44;21222012;27;20039;-76
2022/10/01 13:10:00;;;;;;;0.57;0.55;;;;;;;17.47;97.60;100064.72;21130156;27;20043;-76
2022/10/01 13:20:10;;;;;;;0.45;0.40;;;;;;;17.47;97.74;100088.94;21218497;27;20051;-76
2022/10/01 13:30:18;;;;;;;0.80;0.28;;;;;;;17.46;97.71;100090.75;21217657;27;20047;-76
2022/10/01 13:40:28;;;;;;;0.40;0.30;;;;;;;17.46;97.61;100125.75;21217621;27;20035;-77
2022/10/01 13:50:30;;;;;;;0.55;0.40;;;;;;;17.45;97.63;100148.28;21187575;27;20531;-76
2022/10/01 14:00:32;;;;;;;0.20;0.20;;;;;;;17.45;97.68;100164.41;20804997;27;20103;-75
2022/10/01 14:15:57;;;;;;;0.30;0.20;;;;;;;17.45;97.88;100172.50;20777757;27;20133;-74
2022/10/01 14:21:30;;;;;;;1.80;0.40;;;;;;;17.51;99.79;100185.34;20728385;27;20739;-74
2022/10/01 14:31:36;;;;;;;2.40;0.50;;;;;;;17.54;100.00;100185.03;20733011;27;20054;-73
2022/10/01 14:41:37;;;;;;;2.63;0.70;;;;;;;17.46;100.00;100190.31;20716995;27;20043;-74
2022/10/01 14:51:49;;;;;;;1.23;0.60;;;;;;;17.46;100.00;100187.63;20754708;27;20050;-74
2022/10/01 15:02:00;;;;;;;1.90;0.52;;;;;;;17.65;100.00;100251.28;20771812;27;20104;-74
2022/10/01 15:12:04;;;;;;;1.27;0.55;;;;;;;17.66;100.00;100260.19;20725380;27;20509;-74
2022/10/01 15:22:07;;;;;;;1.27;0.30;;;;;;;17.60;100.00;100266.16;20748623;27;20052;-74
2022/10/01 15:32:13;;;;;;;1.05;0.35;;;;;;;17.41;100.00;100241.06;20723807;27;20134;-74
2022/10/01 15:42:27;;;;;;;1.60;0.52;;;;;;;17.70;100.00;100296.59;20753308;27;22211;-74
2022/10/01 15:52:51;;;;;;;1.55;0.60;;;;;;;17.62;100.00;100312.63;20757997;27;20060;-74
2022/10/01 16:02:53;;;;;;;4.00;1.17;;;;;;;17.76;100.00;100328.31;20802729;27;20052;-75
2022/10/01 16:12:55;;;;;;;4.45;1.15;;;;;;;17.83;100.00;100332.09;20779923;27;20118;-75
2022/10/01 16:23:35;;;;;;;5.20;1.15;;;;;;;17.86;100.00;100352.47;20736575;27;20053;-76
2022/10/01 16:33:36;;;;;;;10.40;1.23;;;;;;;17.88;100.00;100373.88;20742080;27;20054;-74
2022/10/01 16:43:38;;;;;;;4.72;1.20;;;;;;;17.79;100.00;100384.53;20741587;27;20137;-75
2022/10/01 16:53:41;;;;;;;4.65;1.20;;;;;;;17.88;100.00;100425.03;20749765;27;20095;-75
2022/10/01 17:03:43;;;;;;;4.88;1.17;;;;;;;17.88;100.00;100438.50;20772578;27;20141;-74
2022/10/01 17:13:44;;;;;;;3.22;1.20;;;;;;;17.88;100.00;100451.97;20745755;27;20177;-74
2022/10/01 17:23:46;;;;;;;2.92;1.00;;;;;;;17.87;100.00;100448.41;20705652;27;20510;-74
2022/10/01 17:33:53;;;;;;;3.53;1.10;;;;;;;17.69;100.00;100442.97;20747244;27;20056;-75
2022/10/01 17:43:56;;;;;;;3.47;1.40;;;;;;;17.86;100.00;100475.50;20788803;27;20086;-75
2022/10/01 17:54:00;;;;;;;4.65;1.02;;;;;;;17.82;100.00;100494.63;21215976;27;20578;-75
2022/10/01 18:04:04;;;;;;;5.80;1.10;;;;;;;17.77;100.00;100521.16;20948164;27;20057;-76
2022/10/01 18:14:06;;;;;;;3.67;1.63;;;;;;;17.37;100.00;100481.81;20868827;27;20082;-75
2022/10/01 18:24:08;;;;;;;2.88;0.95;;;;;;;17.69;100.00;100566.81;20868138;27;20044;-76
2022/10/01 18:34:37;;;;;;;3.35;1.00;;;;;;;17.66;100.00;100577.81;20867248;27;20045;-75
2022/10/01 18:44:38;;;;;;;3.47;1.20;;;;;;;17.63;100.00;100597.81;20864251;27;20053;-75
2022/10/01 18:55:00;;;;;;;3.08;0.90;;;;;;;17.61;100.00;100599.81;20875728;27;20043;-76
2022/10/01 19:05:05;;;;;;;4.82;0.90;;;;;;;17.60;100.00;100602.63;21166570;27;20039;-75
2022/10/01 19:15:39;;;;;;;1.90;0.70;;;;;;;17.58;100.00;100613.56;21212741;27;20253;-76
2022/10/01 19:26:01;;;;;;;1.90;0.80;;;;;;;17.44;100.00;100612.13;21210516;27;20047;-75
2022/10/01 19:36:05;;;;;;;3.40;0.65;;;;;;;17.30;100.00;100602.59;21211458;27;20055;-75
2022/10/01 19:46:19;;;;;;;2.90;0.87;;;;;;;17.54;100.00;100674.03;21205621;27;20112;-75
2022/10/01 19:56:27;;;;;;;1.58;0.60;;;;;;;17.52;100.00;100676.84;21130860;27;20043;-76
2022/10/01 20:06:32;;;;;;;2.10;0.88;;;;;;;17.51;100.00;100680.53;21210792;27;20503;-76
2022/10/01 20:16:46;;;;;;;2.40;0.93;;;;;;;17.51;100.00;100675.16;21218870;27;20277;-75
2022/10/01 20:27:19;;;;;;;2.20;0.88;;;;;;;17.50;100.00;100684.22;21224070;27;20063;-75
2022/10/01 20:37:20;;;;;;;2.35;0.77;;;;;;;17.49;100.00;100698.66;21224204;27;20039;-75
2022/10/01 20:47:43;;;;;;;1.42;0.60;;;;;;;17.49;100.00;100714.81;21223448;27;20041;-75
2022/10/01 20:57:57;;;;;;;1.63;0.70;;;;;;;17.49;100.00;100787.47;21170356;27;20472;-75
2022/10/01 21:08:15;;;;;;;2.03;1.17;;;;;;;17.46;100.00;100736.63;21220959;27;20050;-75
2022/10/01 21:18:30;;;;;;;1.38;0.50;;;;;;;17.24;100.00;100703.59;21144888;27;20053;-76
2022/10/01 21:29:18;;;;;;;1.98;0.63;;;;;;;17.41;100.00;100728.13;20807756;27;20050;-76
2022/10/01 21:39:30;;;;;;;0.82;0.40;;;;;;;17.46;100.00;100741.19;20735897;27;20042;-75
2022/10/01 21:49:50;;;;;;;0.98;0.57;;;;;;;17.45;100.00;100739.44;20766880;27;20487;-75
2022/10/01 22:00:22;;;;;;;1.67;0.60;;;;;;;17.45;100.00;100769.91;20854899;27;20071;-75
2022/10/01 22:10:27;;;;;;;0.75;0.40;;;;;;;17.44;100.00;100762.81;20784047;27;20497;-76
2022/10/01 22:20:33;;;;;;;1.23;0.65;;;;;;;17.43;100.00;100769.19;20977103;27;20488;-75
2022/10/01 22:30:37;;;;;;;1.58;0.60;;;;;;;17.15;100.00;100728.59;20818833;27;20052;-75
2022/10/01 22:40:44;;;;;;;1.85;1.00;;;;;;;17.34;100.00;100770.03;20950158;27;20053;-76
2022/10/01 22:50:49;;;;;;;0.90;0.50;;;;;;;17.43;100.00;100798.81;20830148;27;20122;-75
2022/10/01 23:01:28;;;;;;;2.23;0.80;;;;;;;17.42;100.00;100810.56;20789561;27;20103;-76
2022/10/01 23:11:55;;;;;;;1.33;0.40;;;;;;;17.42;100.00;100805.16;20713930;27;20462;-76
2022/10/01 23:22:18;;;;;;;0.52;0.35;;;;;;;17.35;100.00;100801.31;20790180;27;20417;-75
2022/10/01 23:32:41;;;;;;;1.05;0.40;;;;;;;17.40;100.00;100824.13;20906973;27;20528;-75
2022/10/01 23:42:51;;;;;;;2.08;0.63;;;;;;;17.39;100.00;100813.50;20931190;27;20053;-76
2022/10/01 23:53:00;;;;;;;1.08;0.52;;;;;;;17.39;100.00;100818.91;20913857;27;20132;-75
